sensor_id;sensor_type;location;lat;lon;timestamp;pressure;altitude;pressure_sealevel;temperature;humidity
74474;BME280;62922;-6.168;106.796;2022-12-18T00:01:30;100639.94;;;30.48;63.58
74474;BME280;62922;-6.168;106.796;2022-12-18T00:04:00;100681.31;;;30.74;63.39
74474;BME280;62922;-6.168;106.796;2022-12-18T00:06:28;100651.38;;;30.52;62.93
74474;BME280;62922;-6.168;106.796;2022-12-18T00:08:56;100635.66;;;30.42;62.52
74474;BME280;62922;-6.168;106.796;2022-12-18T00:11:26;100641.78;;;30.44;62.90
74474;BME280;62922;-6.168;106.796;2022-12-18T00:13:54;100652.38;;;30.47;62.69
74474;BME280;62922;-6.168;106.796;2022-12-18T00:16:22;100707.50;;;30.74;63.09
74474;BME280;62922;-6.168;106.796;2022-12-18T00:18:50;100690.44;;;30.71;63.06
74474;BME280;62922;-6.168;106.796;2022-12-18T00:21:18;100630.69;;;30.39;62.97
74474;BME280;62922;-6.168;106.796;2022-12-18T00:23:45;100685.47;;;30.67;63.28
74474;BME280;62922;-6.168;106.796;2022-12-18T00:26:15;100691.75;;;30.73;63.40
74474;BME280;62922;-6.168;106.796;2022-12-18T00:28:42;100640.63;;;30.37;62.53
74474;BME280;62922;-6.168;106.796;2022-12-18T00:31:14;100654.53;;;30.42;62.75
74474;BME280;62922;-6.168;106.796;2022-12-18T00:33:42;100709.28;;;30.79;62.58
74474;BME280;62922;-6.168;106.796;2022-12-18T00:36:13;100679.53;;;30.52;62.41
74474;BME280;62922;-6.168;106.796;2022-12-18T00:38:40;100611.16;;;30.17;62.28
74474;BME280;62922;-6.168;106.796;2022-12-18T00:41:11;100675.38;;;30.49;62.42
74474;BME280;62922;-6.168;106.796;2022-12-18T00:43:39;100669.75;;;30.49;62.26
74474;BME280;62922;-6.168;106.796;2022-12-18T00:46:05;100636.16;;;30.10;62.53
74474;BME280;62922;-6.168;106.796;2022-12-18T00:48:32;100663.81;;;30.25;62.55
74474;BME280;62922;-6.168;106.796;2022-12-18T00:50:58;100690.66;;;30.48;62.26
74474;BME280;62922;-6.168;106.796;2022-12-18T00:53:25;100652.56;;;30.25;62.28
74474;BME280;62922;-6.168;106.796;2022-12-18T00:55:54;100700.91;;;30.61;62.15
74474;BME280;62922;-6.168;106.796;2022-12-18T00:58:23;100705.69;;;30.61;61.82
74474;BME280;62922;-6.168;106.796;2022-12-18T01:00:50;100659.53;;;30.28;61.65
74474;BME280;62922;-6.168;106.796;2022-12-18T01:03:16;100716.28;;;30.64;61.31
74474;BME280;62922;-6.168;106.796;2022-12-18T01:05:42;100687.66;;;30.36;61.58
74474;BME280;62922;-6.168;106.796;2022-12-18T01:08:09;100680.69;;;30.42;61.08
74474;BME280;62922;-6.168;106.796;2022-12-18T01:10:35;100629.88;;;30.05;61.10
74474;BME280;62922;-6.168;106.796;2022-12-18T01:13:04;100639.97;;;30.14;60.96
74474;BME280;62922;-6.168;106.796;2022-12-18T01:15:30;100667.13;;;30.36;60.48
74474;BME280;62922;-6.168;106.796;2022-12-18T01:17:57;100591.81;;;29.90;60.34
74474;BME280;62922;-6.168;106.796;2022-12-18T01:20:23;100654.88;;;30.23;60.29
74474;BME280;62922;-6.168;106.796;2022-12-18T01:22:49;100648.91;;;30.25;59.03
74474;BME280;62922;-6.168;106.796;2022-12-18T01:25:15;100655.88;;;30.27;58.99
74474;BME280;62922;-6.168;106.796;2022-12-18T01:27:42;100672.44;;;30.37;59.05
74474;BME280;62922;-6.168;106.796;2022-12-18T01:30:08;100671.09;;;30.43;58.85
74474;BME280;62922;-6.168;106.796;2022-12-18T01:32:35;100696.09;;;30.53;58.77
74474;BME280;62922;-6.168;106.796;2022-12-18T01:35:01;100710.34;;;30.65;58.50
74474;BME280;62922;-6.168;106.796;2022-12-18T01:37:27;100704.53;;;30.62;58.51
74474;BME280;62922;-6.168;106.796;2022-12-18T01:39:54;100638.47;;;30.25;58.18
74474;BME280;62922;-6.168;106.796;2022-12-18T01:42:21;100712.28;;;30.74;58.42
74474;BME280;62922;-6.168;106.796;2022-12-18T01:47:28;100661.16;;;30.46;58.27
74474;BME280;62922;-6.168;106.796;2022-12-18T01:49:57;100659.78;;;30.60;57.84
74474;BME280;62922;-6.168;106.796;2022-12-18T01:52:28;100692.28;;;30.84;57.26
74474;BME280;62922;-6.168;106.796;2022-12-18T01:54:58;100636.13;;;30.53;57.49
74474;BME280;62922;-6.168;106.796;2022-12-18T01:57:26;100679.34;;;30.83;57.11
74474;BME280;62922;-6.168;106.796;2022-12-18T01:59:54;100676.34;;;30.88;56.67
74474;BME280;62922;-6.168;106.796;2022-12-18T02:02:22;100634.75;;;30.67;56.35
74474;BME280;62922;-6.168;106.796;2022-12-18T02:04:48;100641.56;;;30.66;56.24
74474;BME280;62922;-6.168;106.796;2022-12-18T02:09:52;100680.75;;;31.06;55.69
74474;BME280;62922;-6.168;106.796;2022-12-18T02:12:23;100637.56;;;30.85;54.74
74474;BME280;62922;-6.168;106.796;2022-12-18T02:17:22;100637.38;;;30.90;54.59
74474;BME280;62922;-6.168;106.796;2022-12-18T02:22:37;100665.66;;;31.10;54.11
74474;BME280;62922;-6.168;106.796;2022-12-18T02:27:41;100669.75;;;31.21;53.77
74474;BME280;62922;-6.168;106.796;2022-12-18T02:30:11;100606.38;;;30.90;54.28
74474;BME280;62922;-6.168;106.796;2022-12-18T02:32:41;100659.91;;;31.36;53.88
74474;BME280;62922;-6.168;106.796;2022-12-18T02:35:15;100581.16;;;30.93;53.45
74474;BME280;62922;-6.168;106.796;2022-12-18T02:37:46;100645.75;;;31.44;53.54
74474;BME280;62922;-6.168;106.796;2022-12-18T02:40:14;100588.00;;;31.21;53.19
74474;BME280;62922;-6.168;106.796;2022-12-18T02:42:42;100614.13;;;31.30;53.32
74474;BME280;62922;-6.168;106.796;2022-12-18T02:45:09;100655.34;;;31.52;53.11
74474;BME280;62922;-6.168;106.796;2022-12-18T02:47:39;100610.34;;;31.26;53.62
74474;BME280;62922;-6.168;106.796;2022-12-18T02:52:42;100607.31;;;31.40;53.15
74474;BME280;62922;-6.168;106.796;2022-12-18T02:57:51;100630.88;;;31.65;52.73
74474;BME280;62922;-6.168;106.796;2022-12-18T03:00:23;100611.38;;;31.51;52.76
74474;BME280;62922;-6.168;106.796;2022-12-18T03:05:24;100655.63;;;31.88;51.84
74474;BME280;62922;-6.168;106.796;2022-12-18T03:07:59;100590.78;;;31.59;51.91
74474;BME280;62922;-6.168;106.796;2022-12-18T03:10:30;100581.81;;;31.57;51.17
74474;BME280;62922;-6.168;106.796;2022-12-18T03:13:02;100648.47;;;32.11;51.59
74474;BME280;62922;-6.168;106.796;2022-12-18T03:15:34;100579.34;;;31.76;51.54
74474;BME280;62922;-6.168;106.796;2022-12-18T03:18:08;100650.19;;;32.24;51.86
74474;BME280;62922;-6.168;106.796;2022-12-18T03:20:41;100595.09;;;31.98;51.73
74474;BME280;62922;-6.168;106.796;2022-12-18T03:23:10;100637.78;;;32.37;52.35
74474;BME280;62922;-6.168;106.796;2022-12-18T03:25:40;100632.41;;;32.44;51.76
74474;BME280;62922;-6.168;106.796;2022-12-18T03:28:28;100637.34;;;32.47;51.78
74474;BME280;62922;-6.168;106.796;2022-12-18T03:30:58;100639.56;;;32.42;51.80
74474;BME280;62922;-6.168;106.796;2022-12-18T03:33:28;100634.16;;;32.49;51.66
74474;BME280;62922;-6.168;106.796;2022-12-18T03:35:56;100620.13;;;32.40;51.72
74474;BME280;62922;-6.168;106.796;2022-12-18T03:38:24;100617.94;;;32.46;51.31
74474;BME280;62922;-6.168;106.796;2022-12-18T03:41:36;100550.50;;;32.12;51.08
74474;BME280;62922;-6.168;106.796;2022-12-18T03:46:35;100620.03;;;32.82;49.56
74474;BME280;62922;-6.168;106.796;2022-12-18T03:49:13;100623.53;;;32.79;50.05
74474;BME280;62922;-6.168;106.796;2022-12-18T03:54:12;100571.72;;;32.63;49.95
74474;BME280;62922;-6.168;106.796;2022-12-18T03:56:47;100606.78;;;32.94;49.87
74474;BME280;62922;-6.168;106.796;2022-12-18T03:59:16;100579.59;;;32.69;50.47
74474;BME280;62922;-6.168;106.796;2022-12-18T04:01:46;100535.91;;;32.42;51.17
74474;BME280;62922;-6.168;106.796;2022-12-18T04:04:15;100584.56;;;32.72;50.88
74474;BME280;62922;-6.168;106.796;2022-12-18T04:06:43;100570.31;;;32.69;51.16
74474;BME280;62922;-6.168;106.796;2022-12-18T04:09:14;100602.59;;;32.80;51.93
74474;BME280;62922;-6.168;106.796;2022-12-18T04:11:41;100517.00;;;32.34;52.38
74474;BME280;62922;-6.168;106.796;2022-12-18T04:14:11;100539.94;;;32.21;54.31
74474;BME280;62922;-6.168;106.796;2022-12-18T04:16:37;100530.75;;;32.24;54.97
74474;BME280;62922;-6.168;106.796;2022-12-18T04:19:04;100568.28;;;32.45;55.35
74474;BME280;62922;-6.168;106.796;2022-12-18T04:21:30;100526.25;;;32.11;56.42
74474;BME280;62922;-6.168;106.796;2022-12-18T04:23:57;100524.75;;;32.25;58.53
74474;BME280;62922;-6.168;106.796;2022-12-18T04:26:23;100554.88;;;32.54;58.66
74474;BME280;62922;-6.168;106.796;2022-12-18T04:28:49;100567.25;;;32.62;58.50
74474;BME280;62922;-6.168;106.796;2022-12-18T04:31:16;100493.34;;;32.27;58.33
74474;BME280;62922;-6.168;106.796;2022-12-18T04:33:42;100563.59;;;32.61;58.83
74474;BME280;62922;-6.168;106.796;2022-12-18T04:36:09;100558.63;;;32.58;59.30
74474;BME280;62922;-6.168;106.796;2022-12-18T04:38:35;100547.78;;;32.48;59.35
74474;BME280;62922;-6.168;106.796;2022-12-18T04:41:01;100552.72;;;32.51;59.37
74474;BME280;62922;-6.168;106.796;2022-12-18T04:43:27;100522.25;;;32.44;59.27
74474;BME280;62922;-6.168;106.796;2022-12-18T04:46:00;100528.97;;;32.52;59.17
74474;BME280;62922;-6.168;106.796;2022-12-18T04:48:27;100516.72;;;32.48;58.89
74474;BME280;62922;-6.168;106.796;2022-12-18T04:50:53;100508.59;;;32.46;58.67
74474;BME280;62922;-6.168;106.796;2022-12-18T04:53:19;100525.91;;;32.69;58.38
74474;BME280;62922;-6.168;106.796;2022-12-18T04:55:45;100518.25;;;32.70;58.09
74474;BME280;62922;-6.168;106.796;2022-12-18T04:58:12;100508.16;;;32.81;57.69
74474;BME280;62922;-6.168;106.796;2022-12-18T05:00:38;100449.16;;;32.55;57.81
74474;BME280;62922;-6.168;106.796;2022-12-18T05:03:05;100491.19;;;32.81;57.74
74474;BME280;62922;-6.168;106.796;2022-12-18T05:05:31;100442.78;;;32.58;57.55
74474;BME280;62922;-6.168;106.796;2022-12-18T05:07:57;100506.41;;;33.00;57.97
74474;BME280;62922;-6.168;106.796;2022-12-18T05:10:23;100494.16;;;32.96;57.43
74474;BME280;62922;-6.168;106.796;2022-12-18T05:12:50;100494.75;;;33.02;58.04
74474;BME280;62922;-6.168;106.796;2022-12-18T05:15:18;100498.75;;;33.13;57.81
74474;BME280;62922;-6.168;106.796;2022-12-18T05:17:45;100435.50;;;32.69;57.75
74474;BME280;62922;-6.168;106.796;2022-12-18T05:20:11;100444.13;;;32.73;57.36
74474;BME280;62922;-6.168;106.796;2022-12-18T05:22:37;100416.66;;;32.49;57.82
74474;BME280;62922;-6.168;106.796;2022-12-18T05:25:04;100506.66;;;33.07;58.08
74474;BME280;62922;-6.168;106.796;2022-12-18T05:27:30;100472.34;;;32.85;58.29
74474;BME280;62922;-6.168;106.796;2022-12-18T05:29:56;100473.78;;;32.91;57.95
74474;BME280;62922;-6.168;106.796;2022-12-18T05:32:23;100438.00;;;32.71;58.33
74474;BME280;62922;-6.168;106.796;2022-12-18T05:34:49;100414.44;;;32.54;59.13
74474;BME280;62922;-6.168;106.796;2022-12-18T05:37:15;100462.56;;;32.82;59.41
74474;BME280;62922;-6.168;106.796;2022-12-18T05:39:43;100457.41;;;32.72;59.00
74474;BME280;62922;-6.168;106.796;2022-12-18T05:42:09;100455.84;;;32.75;59.09
74474;BME280;62922;-6.168;106.796;2022-12-18T05:44:37;100464.81;;;32.77;59.79
74474;BME280;62922;-6.168;106.796;2022-12-18T05:47:04;100479.78;;;32.77;59.86
74474;BME280;62922;-6.168;106.796;2022-12-18T05:49:30;100452.81;;;32.68;60.17
74474;BME280;62922;-6.168;106.796;2022-12-18T05:51:56;100413.50;;;32.50;60.06
74474;BME280;62922;-6.168;106.796;2022-12-18T05:54:27;100393.00;;;32.41;60.53
74474;BME280;62922;-6.168;106.796;2022-12-18T05:56:53;100437.59;;;32.84;61.31
74474;BME280;62922;-6.168;106.796;2022-12-18T05:59:20;100463.78;;;33.05;61.74
74474;BME280;62922;-6.168;106.796;2022-12-18T06:01:46;100445.66;;;32.94;61.37
74474;BME280;62922;-6.168;106.796;2022-12-18T06:04:12;100463.41;;;32.95;61.71
74474;BME280;62922;-6.168;106.796;2022-12-18T06:06:39;100452.34;;;32.78;61.70
74474;BME280;62922;-6.168;106.796;2022-12-18T06:09:05;100455.75;;;32.83;62.16
74474;BME280;62922;-6.168;106.796;2022-12-18T06:11:36;100458.94;;;32.70;62.12
74474;BME280;62922;-6.168;106.796;2022-12-18T06:14:04;100410.91;;;32.45;62.02
74474;BME280;62922;-6.168;106.796;2022-12-18T06:16:31;100433.75;;;32.65;62.26
74474;BME280;62922;-6.168;106.796;2022-12-18T06:19:02;100433.16;;;32.59;62.82
74474;BME280;62922;-6.168;106.796;2022-12-18T06:21:29;100453.28;;;32.70;62.88
74474;BME280;62922;-6.168;106.796;2022-12-18T06:23:56;100446.44;;;32.58;62.41
74474;BME280;62922;-6.168;106.796;2022-12-18T06:26:22;100407.94;;;32.30;63.17
74474;BME280;62922;-6.168;106.796;2022-12-18T06:28:49;100441.75;;;32.50;62.94
74474;BME280;62922;-6.168;106.796;2022-12-18T06:31:15;100413.25;;;32.43;63.02
74474;BME280;62922;-6.168;106.796;2022-12-18T06:33:42;100336.25;;;31.86;62.96
74474;BME280;62922;-6.168;106.796;2022-12-18T06:36:11;100365.22;;;32.07;62.75
74474;BME280;62922;-6.168;106.796;2022-12-18T06:38:39;100419.59;;;32.40;62.84
74474;BME280;62922;-6.168;106.796;2022-12-18T06:41:10;100421.09;;;32.38;63.59
74474;BME280;62922;-6.168;106.796;2022-12-18T06:43:39;100414.19;;;32.35;63.07
74474;BME280;62922;-6.168;106.796;2022-12-18T06:46:06;100362.75;;;32.06;63.74
74474;BME280;62922;-6.168;106.796;2022-12-18T06:48:32;100410.63;;;32.38;63.26
74474;BME280;62922;-6.168;106.796;2022-12-18T06:50:59;100403.94;;;32.31;63.94
74474;BME280;62922;-6.168;106.796;2022-12-18T06:53:25;100345.69;;;32.02;63.49
74474;BME280;62922;-6.168;106.796;2022-12-18T06:55:51;100328.41;;;31.92;63.66
74474;BME280;62922;-6.168;106.796;2022-12-18T06:58:18;100363.22;;;32.20;63.66
74474;BME280;62922;-6.168;106.796;2022-12-18T07:00:44;100343.81;;;32.18;63.79
74474;BME280;62922;-6.168;106.796;2022-12-18T07:03:10;100342.66;;;32.19;64.23
74474;BME280;62922;-6.168;106.796;2022-12-18T07:05:44;100320.66;;;32.25;64.03
74474;BME280;62922;-6.168;106.796;2022-12-18T07:08:10;100316.06;;;32.20;64.08
74474;BME280;62922;-6.168;106.796;2022-12-18T07:10:41;100262.19;;;32.01;64.07
74474;BME280;62922;-6.168;106.796;2022-12-18T07:13:10;100298.88;;;32.25;64.18
74474;BME280;62922;-6.168;106.796;2022-12-18T07:15:39;100294.28;;;32.21;64.50
74474;BME280;62922;-6.168;106.796;2022-12-18T07:18:05;100270.06;;;32.08;64.46
74474;BME280;62922;-6.168;106.796;2022-12-18T07:20:31;100263.59;;;32.07;64.18
74474;BME280;62922;-6.168;106.796;2022-12-18T07:22:58;100269.59;;;32.06;64.21
74474;BME280;62922;-6.168;106.796;2022-12-18T07:25:24;100285.72;;;32.17;63.76
74474;BME280;62922;-6.168;106.796;2022-12-18T07:27:50;100292.78;;;32.11;63.65
74474;BME280;62922;-6.168;106.796;2022-12-18T07:30:22;100299.34;;;32.03;64.01
74474;BME280;62922;-6.168;106.796;2022-12-18T07:32:48;100313.34;;;32.00;63.32
74474;BME280;62922;-6.168;106.796;2022-12-18T07:35:15;100332.41;;;32.03;63.26
74474;BME280;62922;-6.168;106.796;2022-12-18T07:37:41;100351.22;;;31.99;64.18
74474;BME280;62922;-6.168;106.796;2022-12-18T07:40:08;100354.28;;;32.06;63.93
74474;BME280;62922;-6.168;106.796;2022-12-18T07:42:34;100310.16;;;31.89;63.92
74474;BME280;62922;-6.168;106.796;2022-12-18T07:45:03;100337.81;;;32.20;64.03
74474;BME280;62922;-6.168;106.796;2022-12-18T07:47:29;100306.28;;;32.18;63.44
74474;BME280;62922;-6.168;106.796;2022-12-18T07:50:00;100252.69;;;31.94;63.38
74474;BME280;62922;-6.168;106.796;2022-12-18T07:52:26;100274.31;;;32.02;63.40
74474;BME280;62922;-6.168;106.796;2022-12-18T07:54:52;100308.41;;;32.09;63.57
74474;BME280;62922;-6.168;106.796;2022-12-18T07:57:18;100312.78;;;32.06;62.84
74474;BME280;62922;-6.168;106.796;2022-12-18T07:59:48;100274.75;;;31.80;62.72
74474;BME280;62922;-6.168;106.796;2022-12-18T08:02:14;100320.41;;;32.06;62.23
74474;BME280;62922;-6.168;106.796;2022-12-18T08:04:40;100327.25;;;32.05;62.94
74474;BME280;62922;-6.168;106.796;2022-12-18T08:07:06;100328.75;;;32.02;62.26
74474;BME280;62922;-6.168;106.796;2022-12-18T08:09:33;100340.16;;;32.06;62.63
74474;BME280;62922;-6.168;106.796;2022-12-18T08:11:59;100312.53;;;31.99;62.44
74474;BME280;62922;-6.168;106.796;2022-12-18T08:14:25;100312.31;;;32.04;61.96
74474;BME280;62922;-6.168;106.796;2022-12-18T08:16:52;100263.56;;;31.83;62.81
74474;BME280;62922;-6.168;106.796;2022-12-18T08:19:18;100254.28;;;31.71;62.59
74474;BME280;62922;-6.168;106.796;2022-12-18T08:21:44;100312.19;;;32.01;62.63
74474;BME280;62922;-6.168;106.796;2022-12-18T08:24:11;100325.94;;;32.02;62.00
74474;BME280;62922;-6.168;106.796;2022-12-18T08:26:38;100328.88;;;31.94;62.52
74474;BME280;62922;-6.168;106.796;2022-12-18T08:29:04;100347.31;;;32.03;62.37
74474;BME280;62922;-6.168;106.796;2022-12-18T08:31:33;100338.41;;;32.25;61.29
74474;BME280;62922;-6.168;106.796;2022-12-18T08:34:02;100328.03;;;32.29;61.42
74474;BME280;62922;-6.168;106.796;2022-12-18T08:36:28;100279.59;;;32.03;60.61
74474;BME280;62922;-6.168;106.796;2022-12-18T08:38:57;100291.47;;;32.09;60.42
74474;BME280;62922;-6.168;106.796;2022-12-18T08:41:24;100352.06;;;32.35;60.28
74474;BME280;62922;-6.168;106.796;2022-12-18T08:43:51;100320.53;;;32.09;61.46
74474;BME280;62922;-6.168;106.796;2022-12-18T08:46:21;100405.25;;;32.45;60.93
74474;BME280;62922;-6.168;106.796;2022-12-18T08:48:50;100378.97;;;32.33;61.42
74474;BME280;62922;-6.168;106.796;2022-12-18T08:51:17;100382.53;;;32.42;61.32
74474;BME280;62922;-6.168;106.796;2022-12-18T08:53:44;100379.22;;;32.40;60.77
74474;BME280;62922;-6.168;106.796;2022-12-18T08:56:12;100310.91;;;32.10;61.17
74474;BME280;62922;-6.168;106.796;2022-12-18T08:58:38;100341.22;;;32.37;61.58
74474;BME280;62922;-6.168;106.796;2022-12-18T09:01:08;100338.88;;;32.39;61.73
74474;BME280;62922;-6.168;106.796;2022-12-18T09:03:35;100342.50;;;32.40;61.56
74474;BME280;62922;-6.168;106.796;2022-12-18T09:06:04;100330.50;;;32.31;60.87
74474;BME280;62922;-6.168;106.796;2022-12-18T09:08:31;100330.88;;;32.29;61.55
74474;BME280;62922;-6.168;106.796;2022-12-18T09:10:57;100342.63;;;32.31;61.24
74474;BME280;62922;-6.168;106.796;2022-12-18T09:13:23;100325.72;;;32.19;61.09
74474;BME280;62922;-6.168;106.796;2022-12-18T09:15:54;100332.50;;;32.18;61.21
74474;BME280;62922;-6.168;106.796;2022-12-18T09:18:22;100346.88;;;32.25;61.18
74474;BME280;62922;-6.168;106.796;2022-12-18T09:20:49;100353.81;;;32.28;60.97
74474;BME280;62922;-6.168;106.796;2022-12-18T09:23:20;100349.69;;;32.25;61.10
74474;BME280;62922;-6.168;106.796;2022-12-18T09:25:46;100368.63;;;32.37;60.82
74474;BME280;62922;-6.168;106.796;2022-12-18T09:28:16;100296.75;;;31.98;60.96
74474;BME280;62922;-6.168;106.796;2022-12-18T09:30:48;100352.75;;;32.32;61.29
74474;BME280;62922;-6.168;106.796;2022-12-18T09:33:16;100349.91;;;32.32;61.10
74474;BME280;62922;-6.168;106.796;2022-12-18T09:35:43;100349.13;;;32.32;60.81
74474;BME280;62922;-6.168;106.796;2022-12-18T09:38:16;100310.44;;;32.08;60.96
74474;BME280;62922;-6.168;106.796;2022-12-18T09:40:46;100346.19;;;32.28;61.10
74474;BME280;62922;-6.168;106.796;2022-12-18T09:43:20;100343.34;;;32.28;60.95
74474;BME280;62922;-6.168;106.796;2022-12-18T09:45:55;100331.34;;;32.19;61.03
74474;BME280;62922;-6.168;106.796;2022-12-18T09:48:30;100342.28;;;32.21;60.69
74474;BME280;62922;-6.168;106.796;2022-12-18T09:51:06;100339.00;;;32.19;62.11
74474;BME280;62922;-6.168;106.796;2022-12-18T09:53:36;100344.06;;;32.13;61.66
74474;BME280;62922;-6.168;106.796;2022-12-18T09:56:09;100350.66;;;32.17;61.94
74474;BME280;62922;-6.168;106.796;2022-12-18T09:58:45;100367.81;;;32.24;61.86
74474;BME280;62922;-6.168;106.796;2022-12-18T10:01:21;100328.88;;;31.94;61.24
74474;BME280;62922;-6.168;106.796;2022-12-18T10:03:49;100345.94;;;31.97;61.82
74474;BME280;62922;-6.168;106.796;2022-12-18T10:14:01;100364.50;;;31.98;61.57
74474;BME280;62922;-6.168;106.796;2022-12-18T10:16:55;100359.44;;;31.92;61.49
74474;BME280;62922;-6.168;106.796;2022-12-18T10:19:41;100415.69;;;32.21;61.85
74474;BME280;62922;-6.168;106.796;2022-12-18T10:24:51;100422.88;;;32.18;61.67
74474;BME280;62922;-6.168;106.796;2022-12-18T10:27:25;100430.84;;;32.16;61.51
74474;BME280;62922;-6.168;106.796;2022-12-18T10:29:52;100438.97;;;32.18;61.45
74474;BME280;62922;-6.168;106.796;2022-12-18T10:32:24;100453.91;;;32.18;61.45
74474;BME280;62922;-6.168;106.796;2022-12-18T10:34:54;100442.97;;;32.05;62.04
74474;BME280;62922;-6.168;106.796;2022-12-18T10:37:23;100469.91;;;32.14;61.52
74474;BME280;62922;-6.168;106.796;2022-12-18T10:42:21;100482.38;;;32.13;61.75
74474;BME280;62922;-6.168;106.796;2022-12-18T10:45:05;100435.00;;;31.86;61.39
74474;BME280;62922;-6.168;106.796;2022-12-18T10:47:34;100485.56;;;32.12;61.55
74474;BME280;62922;-6.168;106.796;2022-12-18T10:50:01;100473.53;;;32.03;61.40
74474;BME280;62922;-6.168;106.796;2022-12-18T10:52:27;100481.75;;;31.96;62.17
74474;BME280;62922;-6.168;106.796;2022-12-18T10:54:57;100492.47;;;32.02;61.92
74474;BME280;62922;-6.168;106.796;2022-12-18T10:59:54;100464.47;;;31.77;61.52
74474;BME280;62922;-6.168;106.796;2022-12-18T11:02:41;100523.28;;;32.07;61.52
74474;BME280;62922;-6.168;106.796;2022-12-18T11:05:29;100525.75;;;32.09;61.70
74474;BME280;62922;-6.168;106.796;2022-12-18T11:07:57;100522.00;;;32.05;61.50
74474;BME280;62922;-6.168;106.796;2022-12-18T11:10:32;100535.78;;;32.06;61.46
74474;BME280;62922;-6.168;106.796;2022-12-18T11:15:33;100514.19;;;31.90;61.69
74474;BME280;62922;-6.168;106.796;2022-12-18T11:18:02;100543.28;;;32.02;61.38
74474;BME280;62922;-6.168;106.796;2022-12-18T11:20:32;100544.13;;;32.03;61.04
74474;BME280;62922;-6.168;106.796;2022-12-18T11:23:02;100504.34;;;31.75;61.51
74474;BME280;62922;-6.168;106.796;2022-12-18T11:25:28;100452.84;;;31.45;60.85
74474;BME280;62922;-6.168;106.796;2022-12-18T11:28:01;100567.00;;;32.01;61.09
74474;BME280;62922;-6.168;106.796;2022-12-18T11:30:33;100517.97;;;31.73;61.38
74474;BME280;62922;-6.168;106.796;2022-12-18T11:33:03;100557.13;;;31.95;61.36
74474;BME280;62922;-6.168;106.796;2022-12-18T11:38:09;100555.34;;;31.91;61.60
74474;BME280;62922;-6.168;106.796;2022-12-18T11:40:40;100549.19;;;31.89;61.35
74474;BME280;62922;-6.168;106.796;2022-12-18T11:46:05;100528.97;;;31.66;61.64
74474;BME280;62922;-6.168;106.796;2022-12-18T11:48:34;100554.78;;;31.77;61.50
74474;BME280;62922;-6.168;106.796;2022-12-18T11:51:05;100559.44;;;31.73;61.17
74474;BME280;62922;-6.168;106.796;2022-12-18T11:53:38;100583.91;;;31.89;61.06
74474;BME280;62922;-6.168;106.796;2022-12-18T11:58:47;100592.22;;;31.86;60.80
74474;BME280;62922;-6.168;106.796;2022-12-18T12:09:38;100617.94;;;31.84;60.87
74474;BME280;62922;-6.168;106.796;2022-12-18T12:19:52;100630.13;;;31.76;61.08
74474;BME280;62922;-6.168;106.796;2022-12-18T12:22:51;100638.38;;;31.81;60.49
74474;BME280;62922;-6.168;106.796;2022-12-18T12:30:34;100656.00;;;31.78;60.85
74474;BME280;62922;-6.168;106.796;2022-12-18T12:38:16;100660.66;;;31.74;60.95
74474;BME280;62922;-6.168;106.796;2022-12-18T12:41:06;100667.97;;;31.75;60.91
74474;BME280;62922;-6.168;106.796;2022-12-18T12:43:56;100660.88;;;31.69;60.85
74474;BME280;62922;-6.168;106.796;2022-12-18T12:46:24;100655.44;;;31.64;61.25
74474;BME280;62922;-6.168;106.796;2022-12-18T12:51:24;100626.22;;;31.39;61.33
74474;BME280;62922;-6.168;106.796;2022-12-18T12:53:52;100665.75;;;31.60;60.96
74474;BME280;62922;-6.168;106.796;2022-12-18T12:56:21;100633.03;;;31.38;60.61
74474;BME280;62922;-6.168;106.796;2022-12-18T13:13:58;100695.28;;;31.63;61.20
74474;BME280;62922;-6.168;106.796;2022-12-18T13:16:25;100709.69;;;31.70;60.86
74474;BME280;62922;-6.168;106.796;2022-12-18T13:18:56;100699.13;;;31.58;61.25
74474;BME280;62922;-6.168;106.796;2022-12-18T13:21:28;100669.22;;;31.36;61.18
74474;BME280;62922;-6.168;106.796;2022-12-18T13:23:56;100718.00;;;31.66;61.23
74474;BME280;62922;-6.168;106.796;2022-12-18T13:28:51;100625.88;;;31.03;61.36
74474;BME280;62922;-6.168;106.796;2022-12-18T13:33:49;100705.44;;;31.55;61.72
74474;BME280;62922;-6.168;106.796;2022-12-18T13:38:45;100720.84;;;31.57;61.97
74474;BME280;62922;-6.168;106.796;2022-12-18T13:43:42;100710.88;;;31.60;61.70
74474;BME280;62922;-6.168;106.796;2022-12-18T13:48:52;100671.56;;;31.26;61.44
74474;BME280;62922;-6.168;106.796;2022-12-18T13:51:20;100707.00;;;31.44;61.33
74474;BME280;62922;-6.168;106.796;2022-12-18T13:53:52;100712.94;;;31.51;61.83
74474;BME280;62922;-6.168;106.796;2022-12-18T13:56:26;100716.59;;;31.51;61.40
74474;BME280;62922;-6.168;106.796;2022-12-18T14:01:24;100718.84;;;31.58;61.38
74474;BME280;62922;-6.168;106.796;2022-12-18T14:04:08;100722.03;;;31.56;60.91
74474;BME280;62922;-6.168;106.796;2022-12-18T14:06:35;100679.03;;;31.22;61.16
74474;BME280;62922;-6.168;106.796;2022-12-18T14:09:02;100725.34;;;31.50;60.75
74474;BME280;62922;-6.168;106.796;2022-12-18T14:11:29;100655.06;;;31.07;61.14
74474;BME280;62922;-6.168;106.796;2022-12-18T14:13:56;100713.50;;;31.36;61.05
74474;BME280;62922;-6.168;106.796;2022-12-18T14:16:23;100710.84;;;31.31;60.86
74474;BME280;62922;-6.168;106.796;2022-12-18T14:18:53;100724.72;;;31.44;60.58
74474;BME280;62922;-6.168;106.796;2022-12-18T14:21:26;100725.41;;;31.41;60.82
74474;BME280;62922;-6.168;106.796;2022-12-18T14:26:27;100722.44;;;31.38;61.09
74474;BME280;62922;-6.168;106.796;2022-12-18T14:29:24;100719.63;;;31.38;60.81
74474;BME280;62922;-6.168;106.796;2022-12-18T14:34:26;100727.41;;;31.41;61.35
74474;BME280;62922;-6.168;106.796;2022-12-18T14:36:53;100723.78;;;31.40;61.00